createdAt,value
2022-12-14T00:02:32.078Z,0.10
2022-12-14T00:08:38.339Z,0.00
2022-12-14T00:14:43.735Z,-0.10
2022-12-14T00:20:45.931Z,-0.20
2022-12-14T00:26:48.057Z,-0.20
2022-12-14T00:32:50.216Z,-0.20
2022-12-14T00:38:52.830Z,-0.20
2022-12-14T00:44:54.964Z,-0.20
2022-12-14T00:50:57.252Z,-0.30
2022-12-14T00:56:59.180Z,-0.40
2022-12-14T01:03:01.992Z,-0.50
2022-12-14T01:09:04.120Z,-0.60
2022-12-14T01:15:06.841Z,-0.50
2022-12-14T01:21:13.025Z,-0.50
2022-12-14T01:27:15.019Z,-0.50
2022-12-14T01:33:17.242Z,-0.50
2022-12-14T01:39:19.199Z,-0.60
2022-12-14T01:45:22.590Z,-0.50
2022-12-14T01:51:27.048Z,-0.50
2022-12-14T01:57:54.028Z,-0.60
2022-12-14T02:03:56.531Z,-0.70
2022-12-14T02:10:02.470Z,-0.90
2022-12-14T02:16:05.027Z,-1.00
2022-12-14T02:22:49.693Z,-1.10
2022-12-14T02:29:21.949Z,-1.20
2022-12-14T02:35:46.876Z,-1.30
2022-12-14T02:42:13.795Z,-1.30
2022-12-14T02:48:24.787Z,-1.40
2022-12-14T02:54:32.136Z,-1.40
2022-12-14T03:00:37.573Z,-1.40
2022-12-14T03:06:39.970Z,-1.20
2022-12-14T03:12:45.527Z,-1.10
2022-12-14T03:19:04.838Z,-1.10
2022-12-14T03:25:24.599Z,-1.00
2022-12-14T03:31:39.233Z,-1.00
2022-12-14T03:38:02.853Z,-1.00
2022-12-14T03:44:31.305Z,-0.90
2022-12-14T03:50:46.389Z,-0.90
2022-12-14T03:56:57.613Z,-0.90
2022-12-14T04:03:15.789Z,-1.00
2022-12-14T04:09:38.143Z,-1.10
2022-12-14T04:16:01.099Z,-1.20
2022-12-14T04:22:05.226Z,-1.30
2022-12-14T04:28:34.204Z,-1.20
2022-12-14T04:34:38.184Z,-1.20
2022-12-14T04:40:45.732Z,-1.00
2022-12-14T04:46:49.290Z,-1.00
2022-12-14T04:53:17.749Z,-1.00
2022-12-14T04:59:20.124Z,-0.90
2022-12-14T05:05:42.722Z,-0.80
2022-12-14T05:11:55.368Z,-0.90
2022-12-14T05:18:03.561Z,-0.80
2022-12-14T05:24:06.204Z,-0.80
2022-12-14T05:30:09.560Z,-0.70
2022-12-14T05:36:11.790Z,-0.60
2022-12-14T05:42:13.965Z,-0.50
2022-12-14T05:48:16.138Z,-0.50
2022-12-14T05:54:18.305Z,-0.40
2022-12-14T06:00:21.124Z,-0.50
2022-12-14T06:06:23.221Z,-0.30
2022-12-14T06:12:26.418Z,-0.30
2022-12-14T06:18:28.652Z,-0.20
2022-12-14T06:24:30.692Z,-0.20
2022-12-14T06:30:32.919Z,-0.10
2022-12-14T06:36:36.018Z,-0.20
2022-12-14T06:42:38.111Z,-0.10
2022-12-14T06:48:40.604Z,-0.10
2022-12-14T06:54:42.687Z,0.00
2022-12-14T07:00:44.941Z,0.30
2022-12-14T07:06:47.085Z,0.60
2022-12-14T07:12:49.292Z,0.80
2022-12-14T07:18:52.010Z,0.90
2022-12-14T07:24:54.360Z,0.90
2022-12-14T07:30:57.510Z,1.10
2022-12-14T07:37:00.389Z,1.40
2022-12-14T07:43:02.635Z,1.60
2022-12-14T07:49:05.335Z,1.90
2022-12-14T07:55:07.765Z,1.90
2022-12-14T08:01:17.651Z,1.80
2022-12-14T08:07:20.291Z,1.60
2022-12-14T08:13:22.982Z,1.70
2022-12-14T08:19:25.363Z,1.90
2022-12-14T08:25:27.762Z,1.80
2022-12-14T08:31:30.435Z,1.90
2022-12-14T08:37:32.613Z,2.00
2022-12-14T08:43:35.501Z,2.10
2022-12-14T08:49:37.877Z,2.40
2022-12-14T08:55:40.102Z,2.60
2022-12-14T09:01:42.559Z,2.70
2022-12-14T09:07:44.824Z,3.00
2022-12-14T09:13:48.023Z,3.40
2022-12-14T09:19:50.447Z,4.00
2022-12-14T09:26:07.656Z,4.40
2022-12-14T09:32:09.985Z,4.70
2022-12-14T09:38:12.791Z,4.60
2022-12-14T09:44:27.157Z,4.60
2022-12-14T09:50:30.021Z,4.10
2022-12-14T09:56:33.928Z,3.80
2022-12-14T10:03:06.299Z,3.40
2022-12-14T10:09:39.607Z,3.80
2022-12-14T10:15:50.976Z,4.00
2022-12-14T10:22:16.111Z,4.00
2022-12-14T10:28:37.631Z,4.00
2022-12-14T10:34:41.260Z,4.00
2022-12-14T10:40:49.856Z,4.10
2022-12-14T10:47:09.817Z,4.10
2022-12-14T10:53:17.762Z,4.00
2022-12-14T10:59:21.316Z,4.00
2022-12-14T11:05:50.158Z,4.00
2022-12-14T11:12:18.903Z,3.70
2022-12-14T11:18:29.993Z,3.70
2022-12-14T11:24:44.509Z,3.60
2022-12-14T11:31:23.389Z,3.80
2022-12-14T11:37:28.885Z,3.90
2022-12-14T11:43:38.985Z,4.00
2022-12-14T11:49:41.077Z,3.90
2022-12-14T11:55:59.063Z,3.80
2022-12-14T12:02:16.214Z,3.80
2022-12-14T12:08:28.294Z,3.90
2022-12-14T12:14:35.800Z,4.00
2022-12-14T12:20:44.511Z,3.90
2022-12-14T12:26:50.404Z,4.10
2022-12-14T12:32:55.248Z,4.10
2022-12-14T12:39:02.665Z,4.10
2022-12-14T12:45:24.931Z,4.10
2022-12-14T12:51:32.234Z,3.90
2022-12-14T12:57:43.209Z,3.70
2022-12-14T13:03:49.037Z,3.60
2022-12-14T13:10:05.597Z,3.50
2022-12-14T13:16:27.222Z,3.50
2022-12-14T13:22:31.573Z,3.40
2022-12-14T13:28:54.766Z,3.30
2022-12-14T13:35:22.986Z,3.20
2022-12-14T13:41:25.514Z,3.10
2022-12-14T13:47:30.426Z,3.10
2022-12-14T13:53:42.426Z,3.00
2022-12-14T13:59:49.050Z,2.90
2022-12-14T14:05:57.453Z,2.70
2022-12-14T14:12:05.119Z,2.60
2022-12-14T14:18:21.254Z,2.60
2022-12-14T14:24:25.994Z,2.60
2022-12-14T14:30:33.616Z,2.60
2022-12-14T14:36:37.448Z,2.60
2022-12-14T14:42:46.800Z,2.50
2022-12-14T14:48:55.581Z,2.40
2022-12-14T14:55:21.698Z,2.40
2022-12-14T15:01:25.648Z,2.40
2022-12-14T15:07:31.316Z,2.30
2022-12-14T15:14:00.772Z,2.30
2022-12-14T15:20:03.661Z,2.30
2022-12-14T15:26:28.056Z,2.30
2022-12-14T15:32:30.927Z,2.30
2022-12-14T15:38:36.079Z,2.30
2022-12-14T15:44:40.458Z,2.30
2022-12-14T15:50:49.381Z,2.30
2022-12-14T15:56:55.993Z,2.20
2022-12-14T16:02:58.251Z,2.20
2022-12-14T16:09:08.275Z,2.30
2022-12-14T16:15:24.276Z,2.40
2022-12-14T16:21:28.318Z,2.40
2022-12-14T16:27:31.309Z,2.40
2022-12-14T16:33:36.480Z,2.40
2022-12-14T16:39:45.513Z,2.50
2022-12-14T16:46:08.193Z,2.50
2022-12-14T16:52:10.241Z,2.50
2022-12-14T16:58:18.045Z,2.60
2022-12-14T17:04:21.281Z,2.60
2022-12-14T17:10:25.855Z,2.60
2022-12-14T17:16:28.327Z,2.50
2022-12-14T17:22:31.612Z,2.50
2022-12-14T17:28:35.061Z,2.60
2022-12-14T17:34:37.238Z,2.70
2022-12-14T17:40:39.940Z,2.80
2022-12-14T17:46:44.055Z,2.70
2022-12-14T17:52:47.506Z,2.80
2022-12-14T17:58:50.359Z,2.80
2022-12-14T18:04:53.107Z,2.90
2022-12-14T18:11:01.518Z,3.00
2022-12-14T18:17:09.717Z,3.00
2022-12-14T18:23:18.551Z,3.00
2022-12-14T18:29:21.010Z,2.90
2022-12-14T18:35:26.415Z,2.90
2022-12-14T18:41:30.300Z,2.90
2022-12-14T18:47:41.832Z,2.90
2022-12-14T18:53:44.728Z,3.00
2022-12-14T18:59:46.890Z,2.80
2022-12-14T19:05:49.255Z,2.90
2022-12-14T19:11:51.419Z,2.90
2022-12-14T19:17:54.439Z,2.90
2022-12-14T19:23:57.328Z,2.80
2022-12-14T19:29:59.593Z,2.90
2022-12-14T19:36:05.481Z,3.00
2022-12-14T19:42:07.771Z,3.00
2022-12-14T19:48:13.089Z,2.90
2022-12-14T19:54:15.558Z,2.90
2022-12-14T20:00:17.808Z,3.00
2022-12-14T20:06:20.286Z,3.00
2022-12-14T20:12:22.461Z,3.00
2022-12-14T20:18:25.897Z,3.00
2022-12-14T20:24:28.084Z,2.90
2022-12-14T20:30:30.878Z,3.00
2022-12-14T20:36:33.179Z,3.10
2022-12-14T20:42:35.351Z,3.10
2022-12-14T20:48:37.818Z,3.10
2022-12-14T20:54:40.135Z,3.20
2022-12-14T21:00:42.358Z,3.20
2022-12-14T21:06:44.713Z,3.30
2022-12-14T21:12:49.117Z,3.30
2022-12-14T21:18:51.525Z,3.40
2022-12-14T21:25:03.655Z,3.50
2022-12-14T21:31:08.630Z,3.60
2022-12-14T21:37:11.209Z,3.70
2022-12-14T21:43:15.452Z,3.70
2022-12-14T21:49:17.673Z,3.80
2022-12-14T21:55:20.066Z,3.90
2022-12-14T22:01:22.443Z,3.80
2022-12-14T22:07:29.783Z,3.80
2022-12-14T22:13:33.254Z,3.80
2022-12-14T22:19:35.689Z,3.80
2022-12-14T22:25:38.951Z,3.80
2022-12-14T22:31:44.371Z,3.80
2022-12-14T22:37:46.544Z,3.80
2022-12-14T22:43:48.732Z,3.80
2022-12-14T22:49:50.837Z,3.80
2022-12-14T22:55:55.446Z,3.90
2022-12-14T23:01:59.265Z,4.00
2022-12-14T23:08:01.575Z,4.00
2022-12-14T23:14:23.209Z,4.00
2022-12-14T23:20:43.805Z,4.00
2022-12-14T23:27:09.310Z,4.00
2022-12-14T23:33:30.782Z,4.00
2022-12-14T23:39:54.053Z,4.00
2022-12-14T23:46:14.834Z,4.10
2022-12-14T23:52:35.519Z,4.10
2022-12-14T23:58:56.520Z,4.20
